»·PEaware :: DAL3355 KGEG-KSEA

DAL3355 :: KGEG-KSEA

FLIGHT INFORMATION

Flight Status: Arrived
Operator:
Delta Air Lines
More flights by this operator :: More flights under this callsign
Pilot: Erik S. (14620)
Aircraft: BOEING 737-800
(B738)
More flights by this aircraft type
Origin: KGEG Spokane Intl
United States
Destination: KSEA Seattle-Tacoma Intl
United States
More flights between these airports :: More routes between these airports
Route: TEMPL GLASR1
File this flight plan on PilotEdge
Remarks:
Altitude:
(Current/Filed)
30,000ft
Speed:
(Current/Filed)
426kts
Departed: 08-Apr-18 06:49 PM
Arrived: 08-Apr-18 07:34 PM
Distance/Time
Traveled:
194nm/0:45
Distance/Time
To Go:
Arrived

Flight Plot

Page will automatically refresh every two minutes.

Flight plan parsing failed; only flown route is shown


Map Options




Map Legend


Flown Route
Filed Route
Departure Airport
Arrival Airport
Navaid (VOR, NDB)
Fix

Horizontal Profiles

Position Reports

Time Latitude Longitude Heading Altitude Ground
Speed
08-Apr-18 17:58 47.623609 -117.538345 340 2358ft 0kts
08-Apr-18 17:59 47.623609 -117.538345 340 2358ft 0kts
08-Apr-18 18:00 47.623609 -117.538345 340 2358ft 0kts
08-Apr-18 18:01 47.623609 -117.538345 340 2358ft 0kts
08-Apr-18 18:02 47.623609 -117.538345 340 2358ft 0kts
08-Apr-18 18:03 47.623609 -117.538345 340 2358ft 0kts
08-Apr-18 18:04 47.623609 -117.538345 340 2358ft 0kts
08-Apr-18 18:05 47.623609 -117.538345 340 2358ft 0kts
08-Apr-18 18:06 47.623609 -117.538345 340 2358ft 0kts
08-Apr-18 18:07 47.623609 -117.538345 340 2358ft 0kts
08-Apr-18 18:08 47.623609 -117.538345 340 2358ft 0kts
08-Apr-18 18:09 47.623609 -117.538345 340 2358ft 0kts
08-Apr-18 18:10 47.623609 -117.538345 340 2358ft 0kts
08-Apr-18 18:11 47.623609 -117.538345 340 2358ft 0kts
08-Apr-18 18:12 47.623609 -117.538345 340 2358ft 0kts
08-Apr-18 18:13 47.623609 -117.538345 340 2358ft 0kts
08-Apr-18 18:14 47.623609 -117.538345 340 2358ft 0kts
08-Apr-18 18:15 47.623609 -117.538345 340 2358ft 0kts
08-Apr-18 18:16 47.623609 -117.538345 340 2358ft 0kts
08-Apr-18 18:17 47.623609 -117.538345 340 2358ft 0kts
08-Apr-18 18:18 47.623609 -117.538345 340 2358ft 0kts
08-Apr-18 18:19 47.623609 -117.538345 340 2358ft 0kts
08-Apr-18 18:20 47.623609 -117.538345 340 2358ft 0kts
08-Apr-18 18:21 47.623609 -117.538345 340 2358ft 0kts
08-Apr-18 18:22 47.623609 -117.538345 340 2358ft 0kts
08-Apr-18 18:23 47.623609 -117.538345 340 2358ft 0kts
08-Apr-18 18:24 47.623609 -117.538345 340 2358ft 0kts
08-Apr-18 18:25 47.623609 -117.538345 340 2358ft 0kts
08-Apr-18 18:26 47.623609 -117.538345 340 2358ft 0kts
08-Apr-18 18:27 47.623609 -117.538345 340 2358ft 0kts
08-Apr-18 18:28 47.623609 -117.538345 340 2358ft 0kts
08-Apr-18 18:29 47.623609 -117.538345 340 2358ft 0kts
08-Apr-18 18:30 47.623609 -117.538345 340 2358ft 0kts
08-Apr-18 18:31 47.623609 -117.538345 340 2358ft 0kts
08-Apr-18 18:32 47.623609 -117.538345 340 2358ft 0kts
08-Apr-18 18:33 47.623609 -117.538345 340 2358ft 0kts
08-Apr-18 18:34 47.623609 -117.538345 340 2358ft 0kts
08-Apr-18 18:35 47.623609 -117.538345 340 2358ft 0kts
08-Apr-18 18:36 47.623609 -117.538345 340 2358ft 0kts
08-Apr-18 18:37 47.623609 -117.538345 340 2358ft 0kts
08-Apr-18 18:38 47.623609 -117.538345 340 2358ft 0kts
08-Apr-18 18:39 47.623609 -117.538345 340 2358ft 0kts
08-Apr-18 18:40 47.623609 -117.538345 340 2358ft 0kts
08-Apr-18 18:41 47.623366 -117.538239 349 2358ft 2kts
08-Apr-18 18:42 47.622905 -117.538504 88 2358ft 1kts
08-Apr-18 18:43 47.622903 -117.538634 88 2358ft 0kts
08-Apr-18 18:44 47.622894 -117.538246 100 2358ft 13kts
08-Apr-18 18:45 47.624305 -117.532735 46 2358ft 27kts
08-Apr-18 18:46 47.629455 -117.524982 43 2358ft 28kts
08-Apr-18 18:47 47.631704 -117.518975 136 2358ft 9kts
08-Apr-18 18:48 47.617141 -117.539359 223 2969ft 153kts
08-Apr-18 18:49 47.582510 -117.582790 219 6042ft 204kts
08-Apr-18 18:50 47.540147 -117.654372 264 9412ft 258kts
08-Apr-18 18:51 47.551356 -117.770550 279 11965ft 319kts
08-Apr-18 18:52 47.565999 -117.904214 280 15574ft 334kts
08-Apr-18 18:53 47.581037 -118.043391 280 19082ft 351kts
08-Apr-18 18:54 47.596836 -118.190167 281 22024ft 371kts
08-Apr-18 18:55 47.613943 -118.345166 281 24645ft 389kts
08-Apr-18 18:56 47.631261 -118.507222 281 26873ft 406kts
08-Apr-18 18:57 47.648725 -118.674019 281 29327ft 408kts
08-Apr-18 18:58 47.665984 -118.841532 281 30095ft 408kts
08-Apr-18 18:59 47.682698 -119.006156 281 30109ft 402kts
08-Apr-18 19:00 47.699429 -119.169626 281 30115ft 400kts
08-Apr-18 19:01 47.715383 -119.333589 281 30097ft 401kts
08-Apr-18 19:02 47.731051 -119.497366 280 30105ft 402kts
08-Apr-18 19:03 47.744016 -119.662710 280 30091ft 404kts
08-Apr-18 19:04 47.757430 -119.829255 279 30092ft 406kts
08-Apr-18 19:05 47.769748 -119.992466 279 30092ft 406kts
08-Apr-18 19:06 47.782173 -120.159741 279 30092ft 405kts
08-Apr-18 19:07 47.794160 -120.324300 280 29567ft 390kts
08-Apr-18 19:08 47.806172 -120.484186 279 27331ft 383kts
08-Apr-18 19:09 47.816961 -120.638843 279 25375ft 368kts
08-Apr-18 19:10 47.827011 -120.785685 279 24161ft 336kts
08-Apr-18 19:11 47.836260 -120.917693 279 24169ft 322kts
08-Apr-18 19:12 47.845050 -121.050587 279 23132ft 320kts
08-Apr-18 19:13 47.853445 -121.179867 279 20928ft 310kts
08-Apr-18 19:14 47.861921 -121.305819 279 18667ft 300kts
08-Apr-18 19:15 47.869708 -121.427816 278 16487ft 292kts
08-Apr-18 19:16 47.876990 -121.546844 276 14365ft 285kts
08-Apr-18 19:17 47.883990 -121.663701 272 12289ft 280kts
08-Apr-18 19:18 47.844642 -121.759071 227 11960ft 279kts
08-Apr-18 19:19 47.808146 -121.845499 273 11118ft 268kts
08-Apr-18 19:20 47.816589 -121.955787 275 9861ft 270kts
08-Apr-18 19:21 47.825648 -122.064223 275 9011ft 251kts
08-Apr-18 19:22 47.834398 -122.162283 275 8292ft 231kts
08-Apr-18 19:23 47.843692 -122.257821 275 6918ft 240kts
08-Apr-18 19:24 47.825335 -122.329146 181 5973ft 216kts
08-Apr-18 19:25 47.768721 -122.316086 177 5543ft 200kts
08-Apr-18 19:26 47.713780 -122.309823 180 4796ft 195kts
08-Apr-18 19:27 47.660784 -122.309343 182 4216ft 178kts
08-Apr-18 19:28 47.616061 -122.309671 182 3372ft 157kts
08-Apr-18 19:29 47.573555 -122.310045 181 2568ft 152kts
08-Apr-18 19:30 47.533570 -122.310391 182 1811ft 131kts
08-Apr-18 19:31 47.498189 -122.310720 182 1146ft 129kts
08-Apr-18 19:32 47.462795 -122.310982 183 459ft 117kts
08-Apr-18 19:33 47.449329 -122.311033 174 441ft 31kts
08-Apr-18 19:34 47.444565 -122.306347 181 441ft 18kts
08-Apr-18 19:35 47.441400 -122.305449 124 441ft 1kts
08-Apr-18 19:36 47.441330 -122.304409 91 441ft 0kts
08-Apr-18 19:37 47.441330 -122.304409 91 441ft 0kts
08-Apr-18 19:38 47.441330 -122.304409 91 441ft 0kts
08-Apr-18 19:39 47.441330 -122.304409 91 441ft 0kts
08-Apr-18 19:40 47.441330 -122.304409 91 441ft 0kts
08-Apr-18 19:41 47.441330 -122.304409 91 441ft 0kts
08-Apr-18 19:42 47.441330 -122.304409 91 441ft 0kts
08-Apr-18 19:43 47.441330 -122.304409 91 441ft 0kts
08-Apr-18 19:44 47.441330 -122.304409 91 441ft 0kts
08-Apr-18 19:45 47.441330 -122.304409 91 441ft 0kts
08-Apr-18 19:46 47.441330 -122.304409 91 441ft 0kts

Navigation Log

Ident Type
Flight plan parsing failed, navigation log unavailable